Station DPLA2 - Dutch Harbor APL, AK Image indicating link to RSS feed of recent meteorological observations for station DPLA2


Conditions at DPLA2 as of
(12:34 am AKDT)
0834 GMT on 05/26/2024:
     

Click on the graph icon in the table below to see a time series plot of the last five days of that observation.

5-day plot - Wind Direction Wind Direction (WDIR): W ( 270 deg true )
5-day plot - Wind Speed Wind Speed (WSPD): 12 kts
5-day plot - Wind Gust Wind Gust (GST): 18 kts
5-day plot - Air Temperature Air Temperature (ATMP): 38.5 °F
5-day plot - Dew Point Dew Point (DEWP): 34.5 °F
5-day plot - Wind Chill Wind Chill (CHILL): 30.2 °F
5-day plot - Wind Speed at 10 Meters Wind Speed at 10 meters (WSPD10M): 12 kts
5-day plot - Wind Speed at 20 Meters Wind Speed at 20 meters (WSPD20M): 12 kts
5-day plot -  Wind Speed, Wind Gust and Atmospheric Pressure Combined plot of Wind Speed, Gust, and Air Pressure
Previous observations
TIME
(AKDT)
5-day plot - Wind Direction
WDIR
 
5-day plot - Wind Speed
WSPD
kts
5-day plot - Wind Gust
GST
kts
5-day plot - Wave Height
WVHT
ft
5-day plot - Dominant Wave Period
DPD
sec
5-day plot - Average Wave Period
APD
sec
5-day plot - Mean Wave Direction
MWD
 
5-day plot - Atmospheric Pressure
PRES
in
5-day plot - Pressure Tendency
PTDY
in
5-day plot - Air Temperature
ATMP
°F
5-day plot - Water Temperature
WTMP
°F
5-day plot - Dew Point
DEWP
°F
5-day plot - Salinity
SAL
psu
5-day plot - Visibility
VIS
nmi
5-day plot - Tide (above MLLW)
TIDE
ft
2024-05-26 12:24 am W 11 16------ 38.8- 34.3---
2024-05-26 12:15 am W 12 18------ 39.0- 34.5---
2024-05-26 12:04 amWNW 12 18------ 39.2- 34.3---
2024-05-25 11:54 pm W 13 19------ 39.2- 34.7---
2024-05-25 11:44 pmWNW 13 21------ 39.2- 34.7---
2024-05-25 11:34 pmWNW 15 22------ 39.0- 35.1---
2024-05-25 11:24 pmWNW 15 21------ 39.2- 35.2---
2024-05-25 11:14 pmWNW 13 21------ 39.2- 35.4---
2024-05-25 11:04 pmWNW 15 22------ 39.2- 35.4---
2024-05-25 10:54 pmWNW 17 24------ 39.4- 35.2---
2024-05-25 10:44 pm NW 16 24------ 39.7- 35.1---
2024-05-25 10:34 pmWNW 15 24------ 39.9- 35.4---
2024-05-25 10:24 pm NW 17 24------ 40.1- 34.9---
2024-05-25 10:14 pm NW 16 30------ 39.9- 35.1---
2024-05-25 10:04 pmWNW 17 25------ 39.6- 35.8---
2024-05-25 09:54 pm NW 18 25------ 39.9- 35.2---
2024-05-25 09:44 pmWNW 18 24------ 39.6- 36.0---
2024-05-25 09:34 pmWNW 19 25------ 39.9- 35.4---
2024-05-25 09:24 pmWNW 19 28------ 39.7- 36.0---
2024-05-25 09:14 pmWNW 19 27------ 39.7- 36.1---
2024-05-25 09:04 pmWNW 19 26------ 39.9- 36.3---
2024-05-25 08:54 pmWNW 20 26------ 40.1- 36.3---
2024-05-25 08:44 pmWNW 17 25------ 39.9- 36.5---
2024-05-25 08:35 pm NW 17 27------ 39.7- 36.5---
2024-05-25 08:25 pm NW 22 32------ 39.6- 36.7---
2024-05-25 08:14 pm NW 20 28------ 39.4- 37.0---
2024-05-25 08:04 pmWNW 21 29------ 39.2- 37.0---
2024-05-25 07:54 pm NW 20 30------ 39.2- 37.0---
2024-05-25 07:44 pm NW 19 28------ 39.2- 36.9---
2024-05-25 07:34 pmWNW 18 30------ 39.2- 37.2---
2024-05-25 07:24 pmWNW 21 29------ 39.0- 37.2---
2024-05-25 07:14 pmWNW 17 28------ 39.2- 37.4---
2024-05-25 07:04 pmWNW 18 27------ 39.2- 37.4---
2024-05-25 06:54 pm W 19 26------ 39.0- 37.4---
2024-05-25 06:44 pm W 21 28------ 39.2- 37.2---
2024-05-25 06:34 pm W 22 28------ 39.4- 37.0---
2024-05-25 06:24 pmWNW 19 29------ 39.4- 37.2---
2024-05-25 06:14 pm W 23 30------ 39.4- 37.2---
2024-05-25 06:04 pm W 21 28------ 39.2- 37.4---
2024-05-25 05:54 pm W 20 27------ 39.4- 37.2---
2024-05-25 05:44 pm W 20 29------ 39.2- 37.0---
2024-05-25 05:24 pm W 23 31------ 39.6- 36.7---
2024-05-25 05:14 pm W 20 27------ 39.2- 36.9---
2024-05-25 05:04 pm W 20 28------ 39.6- 36.5---
2024-05-25 04:54 pm W 19 26------ 39.2- 36.5---
2024-05-25 04:44 pm W 20 26------ 39.2- 36.5---
2024-05-25 04:34 pm W 19 25------ 39.2- 36.1---
2024-05-25 04:24 pm W 23 35------ 39.0- 36.0---
2024-05-25 04:14 pm W 23 33------ 39.4- 36.1---
2024-05-25 03:54 pm W 20 24------ 39.4- 36.1---
2024-05-25 03:44 pm W 22 30------ 39.6- 36.0---
2024-05-25 03:34 pm W 24 30------ 39.6- 36.0---
2024-05-25 03:24 pm W 24 31------ 39.6- 36.1---
2024-05-25 03:14 pm W 22 31------ 39.7- 36.1---
2024-05-25 03:04 pm W 24 30------ 39.9- 36.3---
2024-05-25 02:54 pm W 21 28------ 40.1- 36.3---
2024-05-25 02:44 pm W 22 28------ 40.1- 36.7---
2024-05-25 02:34 pmWNW 19 28------ 40.3- 36.7---
2024-05-25 02:24 pmWNW 19 26------ 40.5- 36.9---
2024-05-25 02:14 pmWNW 19 27------ 40.6- 36.7---
2024-05-25 02:04 pmWNW 15 22------ 40.5- 36.9---
2024-05-25 01:54 pmWNW 16 23------ 40.3- 36.5---
2024-05-25 01:44 pmWNW 18 26------ 40.1- 36.5---
2024-05-25 01:34 pmWNW 17 23------ 40.1- 36.7---
2024-05-25 01:24 pmWNW 17 22------ 39.9- 36.3---
2024-05-25 01:14 pmWNW 16 24------ 39.9- 36.5---
2024-05-25 01:04 pmWNW 19 24------ 39.9- 36.1---
2024-05-25 12:54 pm W 20 26------ 39.9- 36.1---
2024-05-25 12:44 pm W 17 24------ 39.9- 36.3---
2024-05-25 12:34 pm W 20 27------ 40.1- 36.1---
2024-05-25 12:14 pm W 20 28------ 40.3- 35.6---
2024-05-25 12:04 pm W 24 33------ 39.7- 36.0---
2024-05-25 11:54 am W 20 33------ 39.7- 36.9---
2024-05-25 11:44 amWNW 15 21------ 40.1- 36.7---
2024-05-25 11:34 amWNW 18 24------ 40.1- 36.3---
2024-05-25 11:24 am W 16 24------ 40.3- 36.0---
2024-05-25 11:14 am W 17 25------ 40.5- 35.6---
2024-05-25 11:04 amWNW 19 26------ 39.7- 35.4---
2024-05-25 10:54 amWNW 16 24------ 39.9- 35.1---
2024-05-25 10:44 amWNW 16 23------ 39.7- 34.9---
2024-05-25 10:34 amWNW 18 27------ 39.7- 34.9---
2024-05-25 10:24 amWNW 14 22------ 39.6- 34.7---
2024-05-25 10:14 amWNW 15 21------ 39.2- 34.9---
2024-05-25 10:04 amWNW 17 24------ 39.0- 34.3---
2024-05-25 09:54 amWNW 17 25------ 39.6- 34.0---
2024-05-25 09:44 amWNW 17 26------ 39.4- 34.2---
2024-05-25 09:34 amWNW 17 25------ 39.0- 34.0---
2024-05-25 09:24 am W 18 27------ 39.2- 34.2---
2024-05-25 09:14 amWNW 19 26------ 38.8- 34.2---
2024-05-25 09:04 amWNW 16 23------ 38.7- 34.3---
2024-05-25 08:54 amWNW 20 30------ 39.0- 34.2---
2024-05-25 08:44 amWNW 16 29------ 39.4- 34.0---
2024-05-25 08:35 amWNW 16 24------ 39.6- 33.6---
2024-05-25 08:25 amWNW 16 23------ 39.6- 33.8---
2024-05-25 08:14 amWNW 18 25------ 39.7- 33.6---
2024-05-25 08:04 amWNW 18 25------ 39.6- 33.8---
2024-05-25 07:54 amWNW 16 23------ 39.4- 33.8---
2024-05-25 07:44 amWNW 17 25------ 39.6- 33.8---
2024-05-25 07:34 amWNW 18 28------ 39.7- 33.8---
2024-05-25 07:24 amWNW 19 28------ 39.7- 33.6---
2024-05-25 07:14 amWNW 20 27------ 39.9- 34.0---
2024-05-25 07:04 amWNW 16 26------ 39.6- 34.5---
2024-05-25 06:54 amWNW 14 22------ 39.0- 34.9---
2024-05-25 06:44 amWNW 15 22------ 39.2- 34.7---
2024-05-25 06:34 am W 20 29------ 39.7- 34.3---
2024-05-25 06:24 am W 20 30------ 39.9- 34.3---
2024-05-25 06:14 amWNW 19 28------ 40.3- 33.8---
2024-05-25 06:04 amWNW 17 29------ 40.1- 34.0---
2024-05-25 05:54 amWNW 19 28------ 39.7- 34.3---
2024-05-25 05:44 am W 19 26------ 39.7- 34.3---
2024-05-25 05:34 amWNW 16 25------ 39.4- 34.7---
2024-05-25 05:24 amWNW 19 29------ 39.7- 34.2---
2024-05-25 05:14 amWNW 20 29------ 39.9- 34.2---
2024-05-25 05:04 amWNW 21 33------ 39.9- 34.0---
2024-05-25 04:54 amWNW 14 24------ 40.1- 33.6---
2024-05-25 04:44 amWNW 23 31------ 39.9- 33.6---
2024-05-25 04:34 am W 20 28------ 39.4- 34.7---
2024-05-25 04:24 am W 21 29------ 39.9- 34.7---
2024-05-25 04:14 am W 19 27------ 40.3- 34.5---
2024-05-25 04:04 amWNW 17 27------ 39.7- 34.9---
2024-05-25 03:54 amWNW 17 22------ 39.9- 34.9---
2024-05-25 03:44 am W 20 26------ 40.5- 34.0---
2024-05-25 03:34 am W 19 28------ 39.9- 34.3---
2024-05-25 03:24 amWNW 19 27------ 39.7- 34.5---
2024-05-25 03:14 am W 18 26------ 39.2- 34.9---
2024-05-25 03:04 amWNW 18 25------ 39.2- 35.1---
2024-05-25 02:54 am W 17 28------ 39.2- 35.1---
2024-05-25 02:44 am W 16 24------ 39.4- 35.4---
2024-05-25 02:34 amWNW 15 22------ 39.4- 35.4---
2024-05-25 02:24 amWNW 19 26------ 39.7- 34.9---
2024-05-25 02:14 am W 19 27------ 39.9- 34.5---
2024-05-25 02:04 am W 19 25------ 39.9- 34.3---
2024-05-25 01:54 am W 18 26------ 39.7- 35.2---
2024-05-25 01:44 am W 15 24------ 39.2- 35.4---
2024-05-25 01:24 amWNW 19 27------ 39.7- 35.1---
2024-05-25 01:14 am W 17 24------ 39.7- 35.2---
2024-05-25 12:44 am W 19 32------ 40.8- 33.6---
2024-05-25 12:34 am W 20 26------ 40.6- 33.4---
2024-05-25 12:24 am W 24 31------ 40.1- 34.9---
2024-05-25 12:16 am W 17 29------ 40.3- 35.2---
2024-05-25 12:04 am W 13 23------ 39.9- 35.2---
2024-05-24 11:54 pm W 18 29------ 39.7- 35.1---